Time;durP1;ratioP1;P1;durP2;ratioP2;P2;SDS_P1;SDS_P2;PMS_P1;PMS_P2;Temp;Humidity;BMP_temperature;BMP_pressure;BME280_temperature;BME280_humidity;BME280_pressure;Samples;Min_cycle;Max_cycle;Signal;HPM_P1;HPM_P2
2023/04/23 00:01:12;;;;;;;;;4.00;2.67;;;;;13.67;62.64;100412.09;5078498;28;45405;-70
2023/04/23 00:03:41;;;;;;;;;3.67;2.67;;;;;13.67;62.40;100404.09;5077862;28;45670;-70
2023/04/23 00:06:11;;;;;;;;;3.00;2.00;;;;;13.56;62.50;100391.09;5059803;28;45545;-71
2023/04/23 00:08:39;;;;;;;;;7.00;5.00;;;;;13.55;62.90;100392.09;5077790;28;45413;-70
2023/04/23 00:11:05;;;;;;;;;7.67;7.67;;;;;13.53;63.18;100402.13;5069225;28;45502;-72
2023/04/23 00:13:31;;;;;;;;;4.67;2.33;;;;;13.35;63.32;100391.66;5077761;28;45693;-71
2023/04/23 00:15:56;;;;;;;;;1.67;1.67;;;;;13.37;63.32;100392.31;5078045;28;45242;-71
2023/04/23 00:18:22;;;;;;;;;2.00;2.00;;;;;13.26;63.28;100383.84;5059609;28;45320;-69
2023/04/23 00:20:47;;;;;;;;;3.00;3.00;;;;;13.21;63.15;100378.16;5073452;27;45502;-71
2023/04/23 00:23:13;;;;;;;;;7.67;3.00;;;;;13.40;63.48;100409.81;5055944;28;46419;-71
2023/04/23 00:25:38;;;;;;;;;4.00;3.00;;;;;13.36;63.84;100413.84;5057123;28;45506;-72
2023/04/23 00:28:03;;;;;;;;;3.67;3.67;;;;;12.81;63.24;100323.81;5057727;28;45474;-71
2023/04/23 00:30:29;;;;;;;;;2.67;2.67;;;;;12.82;64.09;100324.69;5057810;28;45232;-69
2023/04/23 00:32:54;;;;;;;;;3.67;3.67;;;;;13.18;63.12;100381.16;5057172;28;45820;-70
2023/04/23 00:35:19;;;;;;;;;4.00;4.00;;;;;12.72;63.66;100298.16;5055944;28;46114;-71
2023/04/23 00:37:45;;;;;;;;;3.00;3.00;;;;;13.23;63.60;100377.00;5057542;28;45292;-70
2023/04/23 00:40:11;;;;;;;;;2.33;2.33;;;;;13.19;64.19;100381.00;5060138;28;45418;-70
2023/04/23 00:42:38;;;;;;;;;4.00;2.33;;;;;13.30;64.24;100402.00;5059280;28;46116;-70
2023/04/23 00:45:05;;;;;;;;;5.33;3.00;;;;;13.15;64.11;100368.97;5077826;28;45316;-71
2023/04/23 00:47:31;;;;;;;;;3.67;2.00;;;;;12.93;64.23;100335.81;5077349;27;45502;-70
2023/04/23 00:49:58;;;;;;;;;3.00;3.00;;;;;13.31;63.93;100417.03;5077467;28;45206;-71
2023/04/23 00:52:23;;;;;;;;;4.00;2.00;;;;;13.12;63.91;100384.50;5077110;28;46641;-70
2023/04/23 00:54:48;;;;;;;;;3.00;3.00;;;;;13.20;64.51;100387.16;5077228;28;45484;-71
2023/04/23 00:57:15;;;;;;;;;7.00;4.00;;;;;13.21;64.35;100386.16;5077059;28;45201;-70
2023/04/23 00:59:41;;;;;;;;;11.33;9.33;;;;;12.51;64.63;100264.00;5077503;28;45439;-71
2023/04/23 01:02:06;;;;;;;;;4.00;3.00;;;;;13.27;64.71;100396.19;5077413;28;46222;-70
2023/04/23 01:04:34;;;;;;;;;5.00;4.00;;;;;13.06;64.63;100354.81;5058593;28;45474;-70
2023/04/23 01:06:59;;;;;;;;;2.00;1.00;;;;;13.25;64.66;100387.50;5077345;28;45413;-71
2023/04/23 01:09:26;;;;;;;;;4.00;3.00;;;;;13.17;65.05;100371.47;5058766;27;45308;-70
2023/04/23 01:11:52;;;;;;;;;3.00;3.00;;;;;13.14;65.50;100385.16;5076554;28;46663;-69
2023/04/23 01:14:18;;;;;;;;;3.00;3.00;;;;;13.10;65.36;100384.66;5076865;27;45227;-71
2023/04/23 01:16:44;;;;;;;;;4.00;3.00;;;;;13.06;65.88;100378.84;5077354;28;45237;-71
2023/04/23 01:19:10;;;;;;;;;6.33;3.00;;;;;12.72;66.17;100316.84;5077389;27;45449;-71
2023/04/23 01:21:40;;;;;;;;;7.33;4.00;;;;;12.80;65.92;100330.16;5076962;27;45344;-70
2023/04/23 01:24:05;;;;;;;;;4.00;4.00;;;;;13.00;66.36;100371.47;5076676;28;45252;-71
2023/04/23 01:26:31;;;;;;;;;4.33;4.33;;;;;12.88;66.41;100345.34;5077070;28;45253;-71
2023/04/23 01:28:57;;;;;;;;;1.33;1.33;;;;;12.87;66.75;100357.84;5077363;28;45288;-70
2023/04/23 01:31:23;;;;;;;;;6.00;4.67;;;;;12.96;66.62;100364.81;5076962;28;45818;-71
2023/04/23 01:33:50;;;;;;;;;4.00;3.00;;;;;12.86;66.73;100350.84;5075481;28;46110;-71
2023/04/23 01:36:17;;;;;;;;;3.00;3.00;;;;;12.25;66.73;100250.88;5077059;28;45386;-71
2023/04/23 01:38:42;;;;;;;;;2.67;2.33;;;;;12.23;66.88;100255.53;5076800;28;45467;-70
2023/04/23 01:41:08;;;;;;;;;2.67;2.67;;;;;12.51;67.69;100321.84;5076742;28;45950;-69
2023/04/23 01:43:34;;;;;;;;;3.00;2.00;;;;;12.68;67.49;100347.50;5077057;28;45415;-71
2023/04/23 01:45:59;;;;;;;;;6.33;3.67;;;;;12.60;67.74;100342.16;5076881;28;45338;-69
2023/04/23 01:48:25;;;;;;;;;5.00;3.00;;;;;12.78;67.55;100356.16;5076772;28;45179;-70
2023/04/23 01:50:51;;;;;;;;;6.67;6.67;;;;;12.48;67.55;100307.03;5076779;28;45875;-70
2023/04/23 01:53:17;;;;;;;;;5.00;5.00;;;;;12.37;67.60;100299.34;5058422;28;45655;-71
2023/04/23 01:55:45;;;;;;;;;6.00;4.00;;;;;11.26;67.88;100117.78;5076227;28;45471;-69
2023/04/23 01:58:11;;;;;;;;;8.67;4.67;;;;;12.68;67.80;100343.00;5076683;28;45520;-72
2023/04/23 02:00:36;;;;;;;;;4.33;4.00;;;;;12.35;67.74;100283.50;5076284;28;45296;-71
2023/04/23 02:03:02;;;;;;;;;5.33;4.33;;;;;12.65;68.50;100334.50;5076460;28;45439;-72
2023/04/23 02:05:28;;;;;;;;;3.00;2.00;;;;;12.59;68.18;100336.00;5076576;28;45456;-71
2023/04/23 02:07:53;;;;;;;;;3.00;3.00;;;;;12.17;68.39;100258.84;5076813;28;45498;-71
2023/04/23 02:10:19;;;;;;;;;7.00;4.67;;;;;12.37;68.43;100300.16;5077837;28;46033;-72
2023/04/23 02:12:45;;;;;;;;;3.00;3.00;;;;;12.56;68.86;100346.16;5079874;28;46592;-69
2023/04/23 02:15:12;;;;;;;;;5.00;3.00;;;;;12.53;68.60;100335.84;5080033;28;45320;-70
2023/04/23 02:17:40;;;;;;;;;4.00;3.00;;;;;12.17;69.05;100293.50;5080045;28;45162;-71
2023/04/23 02:20:08;;;;;;;;;4.00;3.00;;;;;11.98;68.77;100267.16;5079706;28;45574;-71
2023/04/23 02:22:35;;;;;;;;;4.33;4.00;;;;;12.48;68.57;100344.34;5079640;27;45427;-71
2023/04/23 02:25:01;;;;;;;;;2.00;2.00;;;;;12.46;68.88;100336.50;5061278;28;45482;-70
2023/04/23 02:27:26;;;;;;;;;3.33;3.33;;;;;12.32;69.14;100323.84;5061645;28;45368;-71
2023/04/23 02:29:52;;;;;;;;;4.33;3.00;;;;;12.37;69.44;100340.16;5079386;28;45457;-70
2023/04/23 02:32:17;;;;;;;;;5.00;5.00;;;;;11.54;69.07;100200.81;5079628;28;45474;-70
2023/04/23 02:34:43;;;;;;;;;3.67;3.67;;;;;11.97;69.27;100286.81;5061347;28;45277;-71
2023/04/23 02:37:08;;;;;;;;;4.00;3.00;;;;;12.32;69.73;100339.81;5079844;28;45227;-69
2023/04/23 02:39:34;;;;;;;;;4.00;3.00;;;;;12.30;69.55;100338.34;5078999;28;47010;-70
2023/04/23 02:41:59;;;;;;;;;4.00;4.00;;;;;12.15;69.91;100312.31;5079060;27;45238;-70
2023/04/23 02:44:25;;;;;;;;;6.67;5.00;;;;;11.65;69.86;100229.81;5078650;27;45435;-74
2023/04/23 02:46:51;;;;;;;;;6.33;5.00;;;;;12.20;70.50;100322.47;5079028;28;45395;-69
2023/04/23 02:49:18;;;;;;;;;6.00;5.00;;;;;12.20;70.40;100322.47;5078877;28;46765;-69
2023/04/23 02:51:44;;;;;;;;;7.00;4.00;;;;;12.13;70.54;100308.97;5078309;27;45399;-70
2023/04/23 02:54:10;;;;;;;;;7.00;5.00;;;;;12.20;70.16;100327.81;5078809;28;45434;-70
2023/04/23 02:56:35;;;;;;;;;8.00;7.00;;;;;11.65;70.80;100243.13;5079440;28;45289;-71
2023/04/23 02:59:01;;;;;;;;;7.00;5.67;;;;;12.07;71.21;100320.31;5079122;28;45509;-70
2023/04/23 03:01:26;;;;;;;;;7.00;6.00;;;;;12.03;71.65;100326.13;5079145;27;45425;-70
2023/04/23 03:03:52;;;;;;;;;5.00;5.00;;;;;11.99;71.57;100320.28;5079202;28;45171;-71
2023/04/23 03:06:18;;;;;;;;;4.33;3.00;;;;;11.96;71.61;100323.28;5079534;28;45625;-70
2023/04/23 03:08:43;;;;;;;;;4.67;4.67;;;;;11.88;71.55;100308.13;5078701;28;46684;-70
2023/04/23 03:11:08;;;;;;;;;5.33;5.00;;;;;11.93;71.32;100322.78;5078149;28;49574;-71
2023/04/23 03:13:34;;;;;;;;;4.67;4.67;;;;;11.90;71.80;100323.09;5078539;28;45415;-70
2023/04/23 03:15:59;;;;;;;;;6.33;4.00;;;;;11.79;71.81;100311.75;5078692;28;45215;-70
2023/04/23 03:18:25;;;;;;;;;4.00;4.00;;;;;11.74;71.72;100295.38;5078376;28;46458;-70
2023/04/23 03:20:50;;;;;;;;;3.67;3.00;;;;;11.83;71.45;100326.41;5077648;27;45346;-70
2023/04/23 03:23:16;;;;;;;;;6.00;5.00;;;;;11.45;71.68;100239.91;5060083;28;47166;-71
2023/04/23 03:25:41;;;;;;;;;4.00;4.00;;;;;11.11;71.59;100184.06;5069889;28;45394;-69
2023/04/23 03:28:06;;;;;;;;;5.33;5.33;;;;;11.55;71.98;100267.22;5077902;28;57465;-68
2023/04/23 03:30:32;;;;;;;;;6.33;3.67;;;;;11.72;72.17;100293.88;5077789;27;46765;-74
2023/04/23 03:32:57;;;;;;;;;3.33;3.00;;;;;11.70;71.93;100291.38;5060246;28;45458;-69
2023/04/23 03:35:23;;;;;;;;;3.67;3.67;;;;;10.94;72.03;100182.34;5078392;28;45677;-69
2023/04/23 03:37:49;;;;;;;;;4.33;4.33;;;;;11.64;72.68;100299.19;5077892;28;46375;-70
2023/04/23 03:40:14;;;;;;;;;4.67;4.67;;;;;11.59;72.40;100291.69;5059546;28;46204;-70
2023/04/23 03:42:40;;;;;;;;;4.00;4.00;;;;;11.57;72.48;100297.16;5059777;28;45280;-70
2023/04/23 03:45:06;;;;;;;;;5.00;5.00;;;;;11.59;72.30;100297.00;5059732;27;45587;-71
2023/04/23 03:47:31;;;;;;;;;2.00;2.00;;;;;11.40;72.43;100265.31;5077725;28;46913;-69
2023/04/23 03:49:57;;;;;;;;;4.33;4.33;;;;;11.54;72.70;100286.00;5077584;27;45214;-70
2023/04/23 03:52:22;;;;;;;;;4.33;2.33;;;;;11.52;72.22;100298.66;5077933;27;45162;-70
2023/04/23 03:54:47;;;;;;;;;3.00;3.00;;;;;11.45;72.40;100287.00;5077375;28;45159;-70
2023/04/23 03:57:13;;;;;;;;;4.00;4.00;;;;;11.48;72.78;100286.66;5077400;28;50388;-69
2023/04/23 03:59:38;;;;;;;;;5.00;5.00;;;;;11.46;72.72;100280.66;5077220;28;47812;-72
2023/04/23 04:02:03;;;;;;;;;4.00;4.00;;;;;11.46;72.68;100292.16;5077891;28;45494;-69
2023/04/23 04:04:29;;;;;;;;;4.67;4.00;;;;;11.45;72.43;100282.50;5078146;27;45376;-70
2023/04/23 04:06:55;;;;;;;;;4.33;4.33;;;;;11.11;72.54;100237.28;5077294;28;46393;-70
2023/04/23 04:09:21;;;;;;;;;4.67;4.67;;;;;11.34;72.33;100298.75;5077337;28;45427;-70
2023/04/23 04:11:46;;;;;;;;;6.33;4.33;;;;;11.39;72.59;100296.41;5077601;28;45427;-71
2023/04/23 04:14:12;;;;;;;;;6.33;5.33;;;;;10.78;72.74;100168.97;5056262;28;45494;-69
2023/04/23 04:16:37;;;;;;;;;4.00;4.00;;;;;11.23;72.42;100233.34;5042947;28;46747;-70
2023/04/23 04:19:03;;;;;;;;;5.00;4.00;;;;;11.45;72.04;100276.34;5075986;27;45519;-70
2023/04/23 04:21:28;;;;;;;;;4.00;4.00;;;;;11.44;71.84;100275.50;5059410;28;45581;-71
2023/04/23 04:23:54;;;;;;;;;7.00;4.00;;;;;11.34;71.86;100252.66;5077460;28;45586;-73
2023/04/23 04:26:20;;;;;;;;;4.33;4.33;;;;;11.40;71.72;100275.97;5068916;28;45703;-69
2023/04/23 04:28:45;;;;;;;;;5.67;2.67;;;;;11.44;71.74;100258.69;5077154;28;45584;-71
2023/04/23 04:31:14;;;;;;;;;3.67;3.67;;;;;11.10;72.10;100226.78;5077213;27;45261;-71
2023/04/23 04:33:40;;;;;;;;;4.67;4.67;;;;;10.27;72.10;100088.34;5076562;28;45472;-69
2023/04/23 04:36:08;;;;;;;;;5.33;4.00;;;;;11.05;72.10;100216.66;5076856;27;45616;-71
2023/04/23 04:38:36;;;;;;;;;4.67;3.33;;;;;11.18;72.33;100243.63;5066451;28;45311;-71
2023/04/23 04:41:02;;;;;;;;;5.67;4.00;;;;;11.31;72.63;100271.63;5077185;28;45508;-69
2023/04/23 04:43:27;;;;;;;;;8.00;7.00;;;;;11.32;72.34;100278.59;5076892;28;45585;-71
2023/04/23 04:45:52;;;;;;;;;5.00;4.00;;;;;11.11;72.36;100220.47;5076616;28;56398;-72
2023/04/23 04:48:18;;;;;;;;;7.00;5.00;;;;;10.55;72.01;100124.34;5058353;28;45585;-70
2023/04/23 04:50:43;;;;;;;;;9.33;9.33;;;;;11.26;71.52;100241.00;5076971;28;45227;-71
2023/04/23 04:53:09;;;;;;;;;9.67;9.67;;;;;11.40;71.74;100241.38;5077017;28;45534;-71
2023/04/23 04:55:34;;;;;;;;;13.67;11.67;;;;;11.42;71.56;100255.38;5076163;28;46838;-71
2023/04/23 04:57:59;;;;;;;;;9.67;9.67;;;;;11.49;71.71;100248.41;5056351;28;46544;-71
2023/04/23 05:00:28;;;;;;;;;13.00;11.00;;;;;11.50;71.31;100242.06;5073449;27;45401;-71
2023/04/23 05:02:56;;;;;;;;;4.00;4.00;;;;;11.54;71.20;100232.75;5068932;27;45592;-71
2023/04/23 05:05:22;;;;;;;;;7.33;6.00;;;;;11.53;71.00;100231.09;5076655;28;45424;-71
2023/04/23 05:07:48;;;;;;;;;9.00;5.00;;;;;11.58;71.22;100237.59;5058070;28;45633;-70
2023/04/23 05:10:14;;;;;;;;;6.67;6.00;;;;;11.66;71.21;100242.13;5076504;28;45459;-71
2023/04/23 05:12:41;;;;;;;;;5.67;4.67;;;;;11.71;70.50;100241.63;5076609;27;45393;-74
2023/04/23 05:15:08;;;;;;;;;5.33;3.00;;;;;11.73;69.92;100237.78;5085891;27;47461;-70
2023/04/23 05:17:34;;;;;;;;;5.00;5.00;;;;;11.69;69.96;100230.31;5058414;28;45466;-70
2023/04/23 05:19:59;;;;;;;;;5.33;3.67;;;;;11.07;69.91;100126.88;5076581;27;45344;-69
2023/04/23 05:22:25;;;;;;;;;7.67;5.67;;;;;11.66;70.25;100226.16;5076907;27;45335;-71
2023/04/23 05:24:51;;;;;;;;;4.00;3.00;;;;;11.73;70.05;100237.78;5076021;28;45549;-69
2023/04/23 05:27:17;;;;;;;;;3.00;2.67;;;;;11.75;69.95;100235.81;5067966;28;45332;-71
2023/04/23 05:29:42;;;;;;;;;5.00;4.00;;;;;11.62;69.92;100211.50;5057844;28;45707;-69
2023/04/23 05:32:08;;;;;;;;;3.67;3.67;;;;;11.80;69.96;100236.16;5076640;28;45403;-69
2023/04/23 05:34:33;;;;;;;;;4.33;4.33;;;;;10.44;69.27;100010.34;5076231;28;45996;-70
2023/04/23 05:36:58;;;;;;;;;5.33;3.67;;;;;11.82;69.48;100234.19;5076050;28;45285;-70
2023/04/23 05:39:24;;;;;;;;;5.33;4.00;;;;;11.82;69.81;100233.38;5075848;28;46460;-69
2023/04/23 05:41:49;;;;;;;;;2.67;2.67;;;;;11.82;69.61;100231.53;5076544;27;45427;-70
2023/04/23 05:44:14;;;;;;;;;8.33;5.00;;;;;11.83;69.54;100211.91;5067724;28;53665;-71
2023/04/23 05:46:40;;;;;;;;;6.00;4.33;;;;;11.76;69.89;100200.19;5078986;28;60813;-71
2023/04/23 05:49:05;;;;;;;;;4.00;4.00;;;;;11.79;69.99;100202.53;5079781;28;45329;-71
2023/04/23 05:51:31;;;;;;;;;3.33;2.33;;;;;11.82;70.16;100215.56;5079830;28;45383;-70
2023/04/23 05:53:56;;;;;;;;;3.67;3.33;;;;;11.33;70.13;100118.75;5079352;28;45936;-69
2023/04/23 05:56:21;;;;;;;;;3.33;3.33;;;;;11.11;70.36;100090.13;5079527;27;45489;-80
2023/04/23 05:58:46;;;;;;;;;6.00;4.00;;;;;11.86;70.04;100210.72;5079039;28;55271;-71
2023/04/23 06:01:12;;;;;;;;;5.00;4.00;;;;;11.86;70.22;100210.72;5079944;27;45308;-71
2023/04/23 06:03:40;;;;;;;;;3.00;3.00;;;;;11.82;69.83;100210.22;5079244;28;45704;-71
2023/04/23 06:06:06;;;;;;;;;4.33;3.00;;;;;11.72;70.17;100188.19;5057947;28;45742;-71
2023/04/23 06:08:31;;;;;;;;;4.00;4.00;;;;;11.27;69.88;100109.63;5075819;28;45521;-71
2023/04/23 06:10:57;;;;;;;;;4.00;4.00;;;;;11.16;69.28;100080.66;5079631;28;45478;-70
2023/04/23 06:13:23;;;;;;;;;6.00;4.00;;;;;11.75;69.90;100174.56;5079366;27;46311;-71
2023/04/23 06:15:48;;;;;;;;;4.33;4.00;;;;;11.98;69.28;100205.88;5061036;28;45525;-71
2023/04/23 06:18:13;;;;;;;;;4.00;4.00;;;;;11.92;69.05;100206.56;5079375;28;45260;-70
2023/04/23 06:20:38;;;;;;;;;4.67;3.00;;;;;11.82;69.66;100188.91;5079161;28;52506;-71
2023/04/23 06:23:05;;;;;;;;;5.00;4.00;;;;;11.78;69.57;100178.72;5060708;28;48144;-71
2023/04/23 06:25:30;;;;;;;;;4.67;4.67;;;;;11.46;69.79;100120.97;5079169;28;45268;-70
2023/04/23 06:27:57;;;;;;;;;4.67;4.33;;;;;12.04;69.92;100216.72;5060622;28;52877;-70
2023/04/23 06:30:22;;;;;;;;;4.00;3.00;;;;;12.00;69.77;100193.22;5079555;28;45319;-70
2023/04/23 06:32:47;;;;;;;;;6.00;5.00;;;;;12.08;69.81;100209.22;5078979;27;46381;-68
2023/04/23 06:35:13;;;;;;;;;4.67;4.67;;;;;12.10;69.85;100205.41;5079164;28;45515;-70
2023/04/23 06:37:38;;;;;;;;;5.67;4.00;;;;;11.64;70.27;100121.63;5079069;28;45499;-69
2023/04/23 06:40:04;;;;;;;;;3.67;3.67;;;;;11.39;70.11;100069.38;5079331;27;45615;-77
2023/04/23 06:42:29;;;;;;;;;6.00;6.00;;;;;11.92;70.32;100147.97;5057837;28;47089;-71
2023/04/23 06:44:58;;;;;;;;;6.33;6.33;;;;;12.14;70.43;100180.06;5069576;27;46073;-71
2023/04/23 06:47:23;;;;;;;;;5.00;4.00;;;;;12.16;70.55;100180.75;5077855;28;45517;-71
2023/04/23 06:49:48;;;;;;;;;7.33;6.00;;;;;11.96;70.58;100136.78;5060548;28;45264;-69
2023/04/23 06:52:14;;;;;;;;;4.33;4.33;;;;;12.30;70.98;100186.41;5078714;28;46478;-70
2023/04/23 06:54:39;;;;;;;;;5.67;5.67;;;;;12.19;70.58;100164.41;5078561;27;45405;-71
2023/04/23 06:57:05;;;;;;;;;8.00;6.67;;;;;12.10;70.95;100133.47;5077944;28;45273;-71
2023/04/23 06:59:30;;;;;;;;;7.00;5.67;;;;;12.41;71.05;100186.03;5078824;28;45598;-71
2023/04/23 07:01:55;;;;;;;;;8.00;7.00;;;;;12.35;71.24;100202.72;5078373;28;55639;-70
2023/04/23 07:04:21;;;;;;;;;7.00;5.00;;;;;12.28;72.29;100178.56;5060289;28;45983;-71
2023/04/23 07:06:46;;;;;;;;;6.00;6.00;;;;;12.25;72.56;100184.25;5078847;28;45312;-71
2023/04/23 07:09:11;;;;;;;;;7.67;7.33;;;;;12.25;73.05;100199.41;5078938;27;45328;-69
2023/04/23 07:11:37;;;;;;;;;7.00;7.00;;;;;11.88;73.48;100107.50;5078093;28;45517;-71
2023/04/23 07:14:02;;;;;;;;;6.00;6.00;;;;;12.23;73.89;100175.59;5078690;28;45378;-70
2023/04/23 07:16:32;;;;;;;;;8.00;8.00;;;;;12.24;74.13;100168.44;5078666;28;45540;-68
2023/04/23 07:18:57;;;;;;;;;8.00;8.00;;;;;11.73;74.15;100094.00;5060779;28;45238;-70
2023/04/23 07:21:26;;;;;;;;;5.33;5.33;;;;;12.24;74.38;100177.25;5059995;28;46533;-71
2023/04/23 07:23:51;;;;;;;;;8.33;8.00;;;;;11.92;74.26;100108.84;5077999;27;45576;-70
2023/04/23 07:26:17;;;;;;;;;8.33;7.67;;;;;12.24;73.92;100150.59;5068564;28;45456;-71
2023/04/23 07:28:42;;;;;;;;;9.33;9.00;;;;;12.35;75.00;100160.88;5078493;27;45402;-71
2023/04/23 07:31:08;;;;;;;;;9.33;6.67;;;;;11.73;74.63;100066.53;5078180;28;46393;-71
2023/04/23 07:33:33;;;;;;;;;8.00;8.00;;;;;11.87;74.94;100077.38;5077919;28;45453;-75
2023/04/23 07:35:59;;;;;;;;;11.00;9.33;;;;;12.23;74.69;100121.47;5078422;28;45460;-71
2023/04/23 07:38:24;;;;;;;;;9.33;9.00;;;;;12.47;74.82;100146.22;5078177;27;45536;-85
2023/04/23 07:40:49;;;;;;;;;10.00;10.00;;;;;12.49;74.31;100135.38;5077825;28;45496;-71
2023/04/23 07:43:15;;;;;;;;;12.00;11.00;;;;;11.22;73.23;99915.06;5077947;28;45470;-71
2023/04/23 07:45:41;;;;;;;;;6.33;6.33;;;;;12.60;74.29;100144.81;5078432;28;45527;-71
2023/04/23 07:48:06;;;;;;;;;9.33;8.00;;;;;12.62;74.33;100149.00;5078236;28;45213;-71
2023/04/23 07:50:31;;;;;;;;;8.00;8.00;;;;;12.49;74.82;100132.72;5077939;28;45657;-70
2023/04/23 07:52:57;;;;;;;;;12.67;10.00;;;;;12.63;74.44;100152.50;5077671;28;45253;-69
2023/04/23 07:55:22;;;;;;;;;8.33;8.33;;;;;12.70;75.01;100151.63;5077831;28;45186;-71
2023/04/23 07:57:47;;;;;;;;;7.33;7.33;;;;;12.68;75.04;100142.16;5059572;28;45264;-71
2023/04/23 08:00:13;;;;;;;;;10.67;9.33;;;;;12.38;74.76;100093.91;5077527;28;45764;-72
2023/04/23 08:02:39;;;;;;;;;10.00;10.00;;;;;12.59;75.42;100121.84;5059142;28;45261;-71
2023/04/23 08:05:05;;;;;;;;;12.00;10.67;;;;;12.76;74.99;100118.09;5077210;28;45276;-69
2023/04/23 08:07:30;;;;;;;;;14.00;13.00;;;;;12.83;74.56;100102.25;5076382;28;45365;-70
2023/04/23 08:10:01;;;;;;;;;12.33;12.33;;;;;12.42;74.50;100009.94;5077257;27;45504;-73
2023/04/23 08:12:27;;;;;;;;;8.00;8.00;;;;;13.00;74.14;100093.97;5059255;28;45292;-71
2023/04/23 08:14:52;;;;;;;;;13.67;12.67;;;;;12.30;74.19;99963.34;5077794;28;45293;-71
2023/04/23 08:17:18;;;;;;;;;9.00;8.67;;;;;13.07;74.65;100067.44;5078039;28;45843;-72
2023/04/23 08:19:43;;;;;;;;;11.33;10.33;;;;;13.29;73.39;100087.16;5077903;28;65140;-70
2023/04/23 08:22:09;;;;;;;;;12.33;11.00;;;;;13.10;72.98;100025.19;5077045;27;45426;-72
2023/04/23 08:24:34;;;;;;;;;8.33;8.33;;;;;13.46;72.46;100062.00;5077315;28;45388;-70
2023/04/23 08:27:00;;;;;;;;;10.00;10.00;;;;;13.46;71.90;100051.31;5076898;28;45406;-70
2023/04/23 08:29:25;;;;;;;;;12.33;10.67;;;;;13.50;73.33;100035.78;5077504;28;46588;-73
2023/04/23 08:31:51;;;;;;;;;11.33;9.67;;;;;13.31;71.94;100013.06;5077144;27;45430;-72
2023/04/23 08:34:16;;;;;;;;;15.33;12.00;;;;;13.37;72.74;100001.66;5059239;28;45301;-71
2023/04/23 08:36:42;;;;;;;;;14.33;10.33;;;;;13.39;72.88;100019.16;5077725;28;45480;-71
2023/04/23 08:39:08;;;;;;;;;10.33;10.33;;;;;13.36;73.72;100030.19;5076720;27;45680;-72
2023/04/23 08:41:38;;;;;;;;;10.33;10.33;;;;;13.01;73.68;99962.22;5077050;28;45438;-72
2023/04/23 08:44:18;;;;;;;;;12.00;10.00;;;;;13.38;73.22;100011.31;5077209;27;45477;-71
2023/04/23 08:46:44;;;;;;;;;11.00;10.00;;;;;13.11;74.03;99948.63;5070736;28;45379;-70
2023/04/23 08:49:17;;;;;;;;;12.00;11.00;;;;;13.23;73.33;99975.78;5076649;28;45544;-72
2023/04/23 08:51:49;;;;;;;;;12.00;12.00;;;;;13.23;73.80;99975.78;5076466;27;45624;-71
2023/04/23 08:54:25;;;;;;;;;8.33;8.00;;;;;13.13;74.41;99967.13;5057982;28;45364;-72
2023/04/23 08:56:52;;;;;;;;;11.33;8.67;;;;;12.62;73.85;99870.84;5077632;27;45540;-69
2023/04/23 08:59:19;;;;;;;;;11.00;11.00;;;;;13.25;74.63;99961.22;5077457;28;46653;-70
2023/04/23 09:01:45;;;;;;;;;10.67;10.00;;;;;13.22;73.92;99960.78;5058891;27;46033;-71
2023/04/23 09:04:15;;;;;;;;;9.33;8.00;;;;;13.31;74.41;99955.16;5076323;27;45418;-71
2023/04/23 09:06:41;;;;;;;;;13.33;11.67;;;;;12.94;73.68;99889.25;5077770;28;45268;-71
2023/04/23 09:09:08;;;;;;;;;10.33;10.00;;;;;13.29;74.01;99927.00;5077028;28;45509;-71
2023/04/23 09:11:36;;;;;;;;;12.00;10.67;;;;;13.60;73.15;99934.84;5077145;28;45482;-70
2023/04/23 09:14:01;;;;;;;;;13.00;12.67;;;;;13.69;72.96;99934.59;5076384;28;45482;-73
2023/04/23 09:16:27;;;;;;;;;9.67;9.67;;;;;13.74;72.29;99911.81;5079390;27;45577;-72
2023/04/23 09:18:52;;;;;;;;;12.00;10.00;;;;;13.81;73.20;99931.44;5079354;28;45791;-71
2023/04/23 09:21:19;;;;;;;;;11.67;11.67;;;;;13.88;72.00;99908.31;5062261;28;45404;-71
2023/04/23 09:23:45;;;;;;;;;12.33;10.00;;;;;14.07;71.20;99881.03;5080031;27;45494;-70
2023/04/23 09:26:19;;;;;;;;;7.67;7.00;;;;;14.22;69.77;99878.31;5080084;27;45552;-70
2023/04/23 09:28:49;;;;;;;;;9.33;9.33;;;;;14.15;68.99;99831.97;5072603;28;45740;-71
2023/04/23 09:31:18;;;;;;;;;10.00;10.00;;;;;14.55;69.23;99882.19;5079674;28;45282;-77
2023/04/23 09:33:50;;;;;;;;;13.33;10.33;;;;;14.34;69.05;99867.94;5080171;28;45644;-71
2023/04/23 09:36:15;;;;;;;;;8.67;8.67;;;;;14.31;69.59;99872.66;5080241;28;45617;-72
2023/04/23 09:38:40;;;;;;;;;10.00;10.00;;;;;14.36;69.84;99868.56;5079339;28;46089;-71
2023/04/23 09:41:21;;;;;;;;;9.00;8.00;;;;;14.37;69.19;99873.72;5079733;28;56378;-71
2023/04/23 09:43:47;;;;;;;;;8.67;8.67;;;;;14.34;69.41;99875.97;5050292;28;45376;-72
2023/04/23 09:46:12;;;;;;;;;9.00;9.00;;;;;14.14;69.35;99823.09;5075501;28;45458;-70
2023/04/23 09:48:41;;;;;;;;;12.33;9.00;;;;;14.34;69.45;99849.22;5079070;28;62348;-70
2023/04/23 09:51:07;;;;;;;;;6.33;5.33;;;;;14.27;69.39;99830.44;5079965;28;45364;-72
2023/04/23 09:53:41;;;;;;;;;11.33;9.00;;;;;14.51;69.11;99842.66;5060777;28;45268;-72
2023/04/23 09:56:06;;;;;;;;;12.00;10.67;;;;;14.66;69.29;99835.38;5079825;28;45510;-72
2023/04/23 09:58:32;;;;;;;;;10.00;8.67;;;;;14.95;68.43;99858.47;5058086;28;47538;-72
2023/04/23 10:01:08;;;;;;;;;10.33;9.33;;;;;14.86;67.23;99823.00;5079766;28;45394;-72
2023/04/23 10:03:33;;;;;;;;;10.33;10.33;;;;;14.88;67.80;99850.38;5079378;28;45240;-69
2023/04/23 10:05:59;;;;;;;;;9.00;8.33;;;;;14.61;66.41;99817.22;5079627;28;45529;-72
2023/04/23 10:08:24;;;;;;;;;14.67;13.33;;;;;13.99;67.21;99721.59;5078747;27;45551;-72
2023/04/23 10:10:50;;;;;;;;;10.67;10.67;;;;;14.39;67.24;99783.44;5079266;28;45810;-71
2023/04/23 10:13:17;;;;;;;;;13.33;12.67;;;;;14.58;67.85;99822.13;5057304;28;45330;-71
2023/04/23 10:15:45;;;;;;;;;10.67;10.33;;;;;14.59;66.56;99821.09;5077472;27;45637;-72
2023/04/23 10:18:13;;;;;;;;;8.33;8.00;;;;;14.51;67.11;99823.94;5079144;28;45561;-71
2023/04/23 10:20:39;;;;;;;;;8.67;8.67;;;;;14.17;66.74;99765.75;5079390;27;45262;-71
2023/04/23 10:23:07;;;;;;;;;8.00;6.67;;;;;14.03;67.27;99762.16;5079810;27;45181;-72
2023/04/23 10:25:35;;;;;;;;;7.33;7.33;;;;;14.16;67.66;99775.63;5079862;28;45467;-71
2023/04/23 10:28:03;;;;;;;;;6.33;6.00;;;;;14.47;66.78;99790.56;5079548;27;46397;-70
2023/04/23 10:30:29;;;;;;;;;9.67;8.33;;;;;14.38;67.21;99778.31;5078069;27;45472;-71
2023/04/23 10:32:55;;;;;;;;;8.67;7.00;;;;;13.74;66.82;99653.53;5060910;28;45476;-70
2023/04/23 10:35:21;;;;;;;;;8.00;8.00;;;;;14.63;67.09;99778.78;5080027;27;45287;-72
2023/04/23 10:37:48;;;;;;;;;7.67;7.67;;;;;14.79;67.12;99768.59;5078804;27;45553;-73
2023/04/23 10:40:18;;;;;;;;;9.67;8.33;;;;;14.81;66.33;99779.91;5078800;28;45466;-70
2023/04/23 10:42:45;;;;;;;;;11.33;10.00;;;;;14.80;65.79;99759.53;5060847;28;45224;-72
2023/04/23 10:45:15;;;;;;;;;7.67;7.67;;;;;14.46;65.26;99736.25;5060794;28;45484;-71
2023/04/23 10:47:44;;;;;;;;;8.67;8.67;;;;;14.67;65.71;99750.59;5078942;28;46385;-81
2023/04/23 10:50:23;;;;;;;;;6.33;6.33;;;;;14.40;65.03;99686.16;5071849;28;45258;-71
2023/04/23 10:52:53;;;;;;;;;8.33;7.00;;;;;14.78;65.12;99723.28;5079513;27;45317;-72
2023/04/23 10:55:24;;;;;;;;;8.00;8.00;;;;;14.79;64.53;99719.59;5061769;28;45461;-73
2023/04/23 10:57:58;;;;;;;;;11.00;8.33;;;;;14.93;64.54;99718.66;5080489;28;45655;-71
2023/04/23 11:00:25;;;;;;;;;5.00;5.00;;;;;14.90;64.10;99694.97;5060273;27;45526;-72
2023/04/23 11:02:52;;;;;;;;;6.67;6.67;;;;;14.34;64.17;99579.19;5078778;27;45518;-71
2023/04/23 11:05:17;;;;;;;;;5.33;5.33;;;;;14.48;63.53;99600.50;5079511;27;45273;-71
2023/04/23 11:08:01;;;;;;;;;5.00;5.00;;;;;15.08;63.59;99689.09;5060778;28;48362;-72
2023/04/23 11:10:27;;;;;;;;;6.67;6.33;;;;;14.13;63.32;99535.47;5069444;28;45276;-71
2023/04/23 11:12:55;;;;;;;;;3.67;3.67;;;;;14.96;63.15;99666.59;5078939;28;45191;-71
2023/04/23 11:15:20;;;;;;;;;5.67;4.33;;;;;14.93;62.92;99650.94;5079138;27;45306;-72
2023/04/23 11:17:47;;;;;;;;;6.00;6.00;;;;;15.07;63.21;99666.03;5078443;28;45259;-74
2023/04/23 11:20:22;;;;;;;;;8.67;7.33;;;;;14.28;63.51;99544.19;5078380;28;45340;-70